Flight Track Log - Related Links

Times and Time Zones

All times are in EDT time to prevent confusion due to time zone crossing. See the EGF3553 flight status page for this flight to view local times or setup timezone preferences in your user account.

Time Position Orientation Groundspeed Altitude Reporting Facility
EDT Latitude Longitude Course Direction KTS MPH feet Rate Location/Type
Thu 08:50:58 PM 36.3575 -94.2281 84° East 262 302 6,500  Level Memphis Center
Thu 08:52:00 PM 36.3503 -94.1356 96° East 265 305 9,400 2,129 Climbing Memphis Center
Thu 08:53:02 PM 36.3453 -94.0086 93° East 300 345 10,900 1,463 Climbing Memphis Center
Thu 08:54:03 PM 36.3569 -93.8794 84° East 369 425 12,400 1,561 Climbing Memphis Center
Thu 08:55:00 PM 36.3023 -93.3728 84° East  Level FlightAware Approximate
Thu 08:55:05 PM 36.3861 -93.7475 75° East 390 449 14,100  Level Memphis Center
Thu 08:56:00 PM 36.3152 -93.2183 84° East  Level FlightAware Approximate
Thu 08:56:07 PM 36.4133 -93.6206 75° East 406 467 15,600  Level Memphis Center
Thu 08:57:09 PM 36.4442 -93.4769 75° East 422 486 17,200 1,512 Climbing Memphis Center
Thu 08:58:10 PM 36.4792 -93.3225 74° East 435 501 18,700 1,512 Climbing Memphis Center
Thu 08:59:12 PM 36.5122 -93.1717 75° East 445 512 20,300 1,742 Climbing Memphis Center
Thu 09:00:14 PM 36.5511 -92.9897 75° East 451 519 22,300 1,694 Climbing Memphis Center
Thu 09:01:16 PM 36.5842 -92.8358 75° East 454 522 23,800 1,415 Climbing Memphis Center
Thu 09:02:17 PM 36.6161 -92.6831 75° East 454 522 25,200 1,610 Climbing Memphis Center
Thu 09:03:19 PM 36.6481 -92.5306 75° East 454 522 27,100 1,887 Climbing Memphis Center
Thu 09:04:21 PM 36.6792 -92.3833 75° East 450 518 29,100 1,561 Climbing Memphis Center
Thu 09:05:22 PM 36.7097 -92.2397 75° East 436 502 30,300 927 Climbing Memphis Center
Thu 09:06:24 PM 36.7456 -92.0903 73° East 454 522 31,000 774 Climbing Memphis Center
Thu 09:07:26 PM 36.8267 -91.9250 58° Northeast 465 535 31,900 774 Climbing Memphis Center
Thu 09:08:28 PM 36.8969 -91.7825 58° Northeast 477 549 32,600 667 Climbing Memphis Center
Thu 09:09:05 PM 36.9400 -91.6969 58° Northeast 477 549 33,000 673 Climbing Kansas City Center
Thu 09:10:06 PM 37.0106 -91.5494 59° Northeast 485 558 33,700 683 Climbing Kansas City Center
Thu 09:11:08 PM 37.0836 -91.4006 58° Northeast 495 570 34,400 629 Climbing Kansas City Center
Thu 09:12:10 PM 37.1578 -91.2489 58° Northeast 502 578 35,000 290 Climbing Kansas City Center
Thu 09:13:12 PM 37.2314 -91.0936 59° Northeast 509 586 35,000  Level Kansas City Center
Thu 09:14:14 PM 37.3108 -90.9317 58° Northeast 527 606 35,000  Level Kansas City Center
Thu 09:15:16 PM 37.4053 -90.7378 58° Northeast 545 627 35,000  Level Kansas City Center
Thu 09:16:17 PM 37.4836 -90.5728 59° Northeast 549 632 35,000  Level Kansas City Center
Thu 09:17:19 PM 37.5619 -90.4092 59° Northeast 549 632 35,000  Level Kansas City Center
Thu 09:18:21 PM 37.6386 -90.2447 59° Northeast 549 632 35,000  Level Kansas City Center
Thu 09:19:23 PM 37.7147 -90.0817 59° Northeast 548 631 35,000  Level Kansas City Center
Thu 09:20:24 PM 37.7914 -89.9164 60° Northeast 548 631 35,000  Level Kansas City Center
Thu 09:21:26 PM 37.8831 -89.7192 59° Northeast 547 629 35,000  Level Kansas City Center
Thu 09:22:28 PM 37.9583 -89.5556 60° Northeast 547 629 35,000  Level Kansas City Center
Thu 09:23:30 PM 38.0339 -89.3911 60° Northeast 545 627 35,000  Level Kansas City Center
Thu 09:24:31 PM 38.1086 -89.2264 60° Northeast 544 626 35,000  Level Kansas City Center
Thu 09:25:33 PM 38.1839 -89.0611 60° Northeast 544 626 35,000  Level Kansas City Center
Thu 09:26:35 PM 38.2564 -88.8950 61° Northeast 541 623 35,000  Level Kansas City Center
Thu 09:27:37 PM 38.3511 -88.6922 59° Northeast 548 631 35,000  Level Kansas City Center
Thu 09:28:38 PM 38.4247 -88.5278 60° Northeast 544 626 35,000  Level Kansas City Center
Thu 09:29:40 PM 38.5000 -88.3572 61° Northeast 544 626 35,000  Level Kansas City Center
Thu 09:30:42 PM 38.5775 -88.1847 60° Northeast 548 631 35,000  Level Kansas City Center
Thu 09:31:22 PM 38.6219 -88.0847 60° Northeast 546 628 35,000  Level Indianapolis Center
Thu 09:32:24 PM 38.6978 -87.9131 60° Northeast 546 628 35,000  Level Indianapolis Center
Thu 09:33:24 PM 38.7725 -87.7397 61° Northeast 548 631 35,000  Level Indianapolis Center
Thu 09:34:28 PM 38.8469 -87.5669 61° Northeast 548 631 35,000  Level Indianapolis Center
Thu 09:35:28 PM 38.9378 -87.3592 61° Northeast 548 631 35,000  Level Indianapolis Center
Thu 09:36:30 PM 39.0119 -87.1844 61° Northeast 548 631 35,000  Level Indianapolis Center
Thu 09:37:30 PM 39.0872 -87.0100 61° Northeast 550 633 35,000  Level Indianapolis Center
Thu 09:38:32 PM 39.1583 -86.8406 62° Northeast 550 633 35,000  Level Indianapolis Center
Thu 09:39:36 PM 39.2314 -86.6675 61° Northeast 550 633 35,000  Level Indianapolis Center
Thu 09:40:36 PM 39.3036 -86.4942 62° Northeast 550 633 35,000  Level Indianapolis Center
Thu 09:41:37 PM 39.3747 -86.3222 62° Northeast 551 634 35,000  Level Indianapolis Center
Thu 09:42:41 PM 39.4603 -86.1156 62° Northeast 551 634 35,000  Level Indianapolis Center
Thu 09:43:41 PM 39.5308 -85.9431 62° Northeast 551 634 35,000  Level Indianapolis Center
Thu 09:44:42 PM 39.6022 -85.7708 62° Northeast 551 634 35,000  Level Indianapolis Center
Thu 09:45:45 PM 39.6736 -85.5964 62° Northeast 551 634 35,000  Level Indianapolis Center
Thu 09:46:46 PM 39.7444 -85.4214 62° Northeast 551 634 35,000  Level Indianapolis Center
Thu 09:47:46 PM 39.8153 -85.2456 62° Northeast 551 634 35,000  Level Indianapolis Center
Thu 09:48:49 PM 39.9000 -85.0350 62° Northeast 551 634 35,000  Level Indianapolis Center
Thu 09:49:51 PM 39.9639 -84.8733 63° Northeast 551 634 35,000  Level Indianapolis Center
Thu 09:50:52 PM 40.0400 -84.7022 60° Northeast 548 631 35,000  Level Indianapolis Center
Thu 09:51:53 PM 40.1172 -84.5294 60° Northeast 548 631 35,000  Level Indianapolis Center
Thu 09:52:57 PM 40.1933 -84.3553 60° Northeast 549 632 35,000  Level Indianapolis Center
Thu 09:53:57 PM 40.2842 -84.1469 60° Northeast 548 631 35,000  Level Indianapolis Center
Thu 09:54:59 PM 40.3597 -83.9714 60° Northeast 549 632 35,000  Level Indianapolis Center
Thu 09:56:00 PM 40.4356 -83.7958 60° Northeast 549 632 35,000  Level Indianapolis Center
Thu 09:57:03 PM 40.5117 -83.6206 60° Northeast 549 632 35,000  Level Indianapolis Center
Thu 09:58:01 PM 40.5853 -83.4461 61° Northeast 549 632 35,000  Level Indianapolis Center
Thu 09:58:37 PM 40.6294 -83.3408 61° Northeast 544 626 35,000  Level Cleveland Center
Thu 09:59:38 PM 40.7031 -83.1664 61° Northeast 544 626 35,000  Level Cleveland Center
Thu 10:00:40 PM 40.7908 -83.0075 54° Northeast 548 631 35,000  Level Cleveland Center
Thu 10:01:42 PM 40.9186 -82.8961 33° Northeast 521 600 35,000  Level Cleveland Center
Thu 10:02:43 PM 41.0422 -82.7947 32° Northeast 520 598 35,000  Level Cleveland Center
Thu 10:03:45 PM 41.1650 -82.6925 32° Northeast 519 597 35,000  Level Cleveland Center
Thu 10:04:47 PM 41.2875 -82.5889 32° Northeast 518 596 35,000  Level Cleveland Center
Thu 10:05:48 PM 41.4092 -82.4839 33° Northeast 517 595 35,000  Level Cleveland Center
Thu 10:06:50 PM 41.5300 -82.3831 32° Northeast 508 585 35,000  Level Cleveland Center
Thu 10:07:52 PM 41.6367 -82.2686 39° Northeast 489 563 35,000  Level Cleveland Center
Thu 10:08:53 PM 41.7014 -82.0706 66° East 498 573 35,000  Level Cleveland Center
Thu 10:09:55 PM 41.6900 -81.8872 95° East 490 564 35,000  Level Cleveland Center
Thu 10:10:57 PM 41.6697 -81.7050 98° East 490 564 35,000  Level Cleveland Center
Thu 10:11:59 PM 41.6494 -81.5219 98° East 490 564 35,000  Level Cleveland Center
Thu 10:13:00 PM 41.6281 -81.3403 99° East 489 563 35,000  Level Cleveland Center
Thu 10:14:02 PM 41.6078 -81.1597 98° East 488 562 35,000  Level Cleveland Center
Thu 10:15:04 PM 41.5869 -80.9819 99° East 482 555 35,000  Level Cleveland Center
Thu 10:16:05 PM 41.5661 -80.8042 99° East 480 552 35,000  Level Cleveland Center
Thu 10:17:07 PM 41.5447 -80.6275 99° East 479 551 35,000  Level Cleveland Center
Thu 10:18:09 PM 41.5228 -80.4514 99° East 479 551 35,000  Level Cleveland Center
Thu 10:19:10 PM 41.4986 -80.2594 99° East 479 551 35,000  Level Cleveland Center
Thu 10:20:12 PM 41.4775 -80.0847 99° East 479 551 35,000  Level Cleveland Center
Thu 10:21:13 PM 41.4553 -79.9061 99° East 479 551 35,000  Level Cleveland Center
Thu 10:22:15 PM 41.4336 -79.7325 99° East 478 550 35,000  Level Cleveland Center
Thu 10:23:17 PM 41.4114 -79.5572 100° East 479 551 35,000  Level Cleveland Center
Thu 10:24:18 PM 41.3883 -79.3819 100° East 480 552 35,000  Level Cleveland Center
Thu 10:25:20 PM 41.3583 -79.1731 101° East 483 556 35,000  Level Cleveland Center
Thu 10:26:22 PM 41.3350 -78.9961 100° East 483 556 35,000  Level Cleveland Center
Thu 10:27:23 PM 41.3106 -78.8183 100° East 483 556 35,000 -195 Level Cleveland Center
Thu 10:28:25 PM 41.2850 -78.6414 101° East 483 556 34,600 -634 Descending Cleveland Center
Thu 10:29:26 PM 41.2608 -78.4681 100° East 484 557 33,700 -780 Descending Cleveland Center
Thu 10:30:28 PM 41.2361 -78.2947 101° East 483 556 33,000 -339 Descending Cleveland Center
Thu 10:31:30 PM 41.2122 -78.1217 100° East 474 545 33,000  Level Cleveland Center
Thu 10:32:31 PM 41.1900 -77.9447 99° East 483 556 33,000  Level Cleveland Center
Thu 10:33:33 PM 41.1683 -77.7700 99° East 484 557 33,000  Level Cleveland Center
Thu 10:34:34 PM 41.1422 -77.5636 99° East 480 552 33,000 -878 Level Cleveland Center
Thu 10:35:36 PM 41.1203 -77.3931 100° East 476 548 31,200 -1,854 Descending Cleveland Center
Thu 10:36:37 PM 41.0978 -77.2214 100° East 476 548 29,200 -1,951 Descending Cleveland Center
Thu 10:37:39 PM 41.0756 -77.0547 100° East 467 537 27,200 -1,951 Descending Cleveland Center
Thu 10:38:40 PM 41.0544 -76.8950 100° East 447 514 25,200 -1,902 Descending Cleveland Center
Thu 10:39:42 PM 41.0339 -76.7433 100° East 429 494 23,300 -1,805 Descending Cleveland Center
Thu 10:40:43 PM 41.0089 -76.5958 103° East 420 483 21,500 -1,805 Descending Cleveland Center
Thu 10:41:45 PM 40.9664 -76.4283 109° East 406 467 19,600 -1,571 Descending Cleveland Center
Thu 10:42:49 PM 40.9308 -76.2861 108° East 388 447 18,200 -919 Descending New York Center
Thu 10:43:49 PM 40.9008 -76.1656 108° East 383 441 17,700 -1,100 Descending New York Center
Thu 10:44:49 PM 40.8694 -76.0342 107° East 378 435 16,000 -1,650 Descending New York Center
Thu 10:45:49 PM 40.8394 -75.9086 107° East 365 420 14,400 -1,500 Descending New York Center
Thu 10:46:49 PM 40.8078 -75.7744 107° East 355 409 13,000 -700 Descending New York Center
Thu 10:47:49 PM 40.7772 -75.6544 109° East 350 403 13,000  Level New York Center
Thu 10:48:49 PM 40.7469 -75.5317 108° East 350 403 13,000 -300 Level New York Center
Thu 10:49:49 PM 40.7200 -75.4203 108° East 358 412 12,400 -800 Descending New York Center
Thu 10:50:49 PM 40.6939 -75.2900 105° East 341 392 11,400 -900 Descending New York Center
Thu 10:51:49 PM 40.6692 -75.1706 105° East 341 392 10,600 -700 Descending New York Center
Thu 10:52:49 PM 40.6183 -75.0825 127° Southeast 329 379 10,000 -300 Descending New York Center
Thu 10:53:49 PM 40.5633 -74.9917 129° Southeast 324 373 10,000  Level New York Center
Thu 10:54:49 PM 40.5297 -74.8803 112° Southeast 324 373 10,000 50 Level New York Center
Thu 10:55:49 PM 40.4997 -74.7803 112° Southeast 303 349 10,100 50 Climbing New York Center
Thu 10:56:49 PM 40.4697 -74.6831 112° Southeast 297 342 10,100 -200 Level New York Center
Thu 10:57:49 PM 40.4375 -74.5803 112° Southeast 297 342 9,700 -600 Descending New York Center
Thu 10:58:49 PM 40.4472 -74.4772 83° East 284 327 8,900 -850 Descending New York Center
Thu 10:59:49 PM 40.4756 -74.3697 71° East 278 320 8,000 -450 Descending New York Center
Thu 11:00:49 PM 40.4989 -74.2836 70° East 278 320 8,000 -150 Level New York Center
Thu 11:01:49 PM 40.5292 -74.1731 70° East 285 328 7,700 -1,100 Descending New York Center
Thu 11:02:49 PM 40.5689 -74.1042 53° Northeast 265 305 5,800 -1,600 Descending New York Center
Thu 11:03:49 PM 40.6344 -74.0608 27° Northeast 247 284 4,500 -900 Descending New York Center
Thu 11:04:49 PM 40.6956 -74.0392 15° North 234 269 4,000 -300 Descending New York Center
Thu 11:05:49 PM 40.7672 -74.0069 19° North 239 275 3,900 -450 Descending New York Center
Thu 11:06:49 PM 40.8228 -73.9631 31° Northeast 233 268 3,100 -500 Descending New York Center
Thu 11:07:49 PM 40.8697 -73.9158 37° Northeast 227 261 2,900 -582 Descending New York Center
Thu 11:09:03 PM 40.8667 -73.8333 93° East 193 222 1,800 -896 Descending New York TRACON
Thu 11:10:03 PM 40.8167 -73.8333 180° South 138 159 900 -900 Descending New York TRACON
Thu 11:12:00 PM 40.7667 -73.8667 30° Northeast  Level FlightAware Approximate
Thu 11:19:00 PM 40.7772 -73.8726 30° Northeast  Level Estimated

Login

Don't have an account? Register now (free) for customized features, flight alerts, and more!